sensor_id;sensor_type;location;lat;lon;timestamp;pressure;altitude;pressure_sealevel;temperature;humidity
47873;BME280;73966;47.438;18.912;2023-12-20T00:00:46;100055.47;;;2.06;71.86
47873;BME280;73966;47.438;18.912;2023-12-20T00:03:16;100055.94;;;1.63;73.16
47873;BME280;73966;47.438;18.912;2023-12-20T00:05:45;100055.56;;;2.03;72.03
47873;BME280;73966;47.438;18.912;2023-12-20T00:08:15;100045.47;;;2.45;70.32
47873;BME280;73966;47.438;18.912;2023-12-20T00:10:45;100048.50;;;2.07;71.46
47873;BME280;73966;47.438;18.912;2023-12-20T00:13:15;100039.50;;;2.15;71.55
47873;BME280;73966;47.438;18.912;2023-12-20T00:15:48;100041.53;;;2.06;71.52
47873;BME280;73966;47.438;18.912;2023-12-20T00:18:17;100038.31;;;1.69;72.70
47873;BME280;73966;47.438;18.912;2023-12-20T00:20:50;100034.91;;;1.95;71.89
47873;BME280;73966;47.438;18.912;2023-12-20T00:23:20;100034.44;;;1.83;72.58
47873;BME280;73966;47.438;18.912;2023-12-20T00:25:52;100025.00;;;1.79;72.94
47873;BME280;73966;47.438;18.912;2023-12-20T00:28:22;100015.72;;;1.68;73.00
47873;BME280;73966;47.438;18.912;2023-12-20T00:30:51;100013.06;;;1.98;72.38
47873;BME280;73966;47.438;18.912;2023-12-20T00:33:20;100018.66;;;1.86;72.38
47873;BME280;73966;47.438;18.912;2023-12-20T00:35:57;100004.94;;;2.06;71.87
47873;BME280;73966;47.438;18.912;2023-12-20T00:38:26;100004.50;;;2.19;71.50
47873;BME280;73966;47.438;18.912;2023-12-20T00:40:57;100001.16;;;2.41;70.49
47873;BME280;73966;47.438;18.912;2023-12-20T00:43:26;100001.62;;;2.01;71.50
47873;BME280;73966;47.438;18.912;2023-12-20T00:45:55;99994.37;;;2.09;71.44
47873;BME280;73966;47.438;18.912;2023-12-20T00:48:25;99992.41;;;2.42;70.10
47873;BME280;73966;47.438;18.912;2023-12-20T00:50:57;99992.50;;;2.14;70.97
47873;BME280;73966;47.438;18.912;2023-12-20T00:53:26;99992.00;;;2.03;71.42
47873;BME280;73966;47.438;18.912;2023-12-20T00:55:56;99983.34;;;2.01;71.31
47873;BME280;73966;47.438;18.912;2023-12-20T00:58:26;99976.13;;;1.82;71.96
47873;BME280;73966;47.438;18.912;2023-12-20T01:00:56;99963.87;;;2.09;71.22
47873;BME280;73966;47.438;18.912;2023-12-20T01:03:24;99975.50;;;2.01;71.36
47873;BME280;73966;47.438;18.912;2023-12-20T01:05:53;99959.06;;;1.97;71.07
47873;BME280;73966;47.438;18.912;2023-12-20T01:08:22;99959.28;;;1.91;71.78
47873;BME280;73966;47.438;18.912;2023-12-20T01:10:52;99952.16;;;2.21;71.11
47873;BME280;73966;47.438;18.912;2023-12-20T01:13:23;99943.56;;;2.17;71.20
47873;BME280;73966;47.438;18.912;2023-12-20T01:15:52;99943.69;;;2.14;70.83
47873;BME280;73966;47.438;18.912;2023-12-20T01:18:26;99940.81;;;1.69;72.57
47873;BME280;73966;47.438;18.912;2023-12-20T01:20:55;99942.69;;;1.92;71.81
47873;BME280;73966;47.438;18.912;2023-12-20T01:23:25;99936.78;;;1.87;71.93
47873;BME280;73966;47.438;18.912;2023-12-20T01:25:54;99925.22;;;1.67;72.58
47873;BME280;73966;47.438;18.912;2023-12-20T01:28:26;99925.66;;;2.07;71.21
47873;BME280;73966;47.438;18.912;2023-12-20T01:30:59;99921.38;;;1.78;72.12
47873;BME280;73966;47.438;18.912;2023-12-20T01:33:28;99917.47;;;2.16;71.10
47873;BME280;73966;47.438;18.912;2023-12-20T01:35:57;99921.44;;;1.76;72.11
47873;BME280;73966;47.438;18.912;2023-12-20T01:38:26;99916.03;;;1.82;72.39
47873;BME280;73966;47.438;18.912;2023-12-20T01:40:56;99913.16;;;1.63;72.96
47873;BME280;73966;47.438;18.912;2023-12-20T01:43:26;99910.47;;;1.91;72.05
47873;BME280;73966;47.438;18.912;2023-12-20T01:46:05;99910.31;;;1.69;72.45
47873;BME280;73966;47.438;18.912;2023-12-20T01:48:35;99905.59;;;1.81;72.36
47873;BME280;73966;47.438;18.912;2023-12-20T01:51:06;99905.69;;;1.25;73.69
47873;BME280;73966;47.438;18.912;2023-12-20T01:53:35;99899.59;;;1.24;73.83
47873;BME280;73966;47.438;18.912;2023-12-20T01:56:05;99889.72;;;1.34;74.17
47873;BME280;73966;47.438;18.912;2023-12-20T01:58:38;99886.44;;;1.55;73.75
47873;BME280;73966;47.438;18.912;2023-12-20T02:01:11;99879.03;;;1.41;74.26
47873;BME280;73966;47.438;18.912;2023-12-20T02:03:41;99874.88;;;1.62;73.26
47873;BME280;73966;47.438;18.912;2023-12-20T02:06:11;99857.94;;;1.74;72.74
47873;BME280;73966;47.438;18.912;2023-12-20T02:08:40;99856.91;;;1.53;73.83
47873;BME280;73966;47.438;18.912;2023-12-20T02:11:10;99859.25;;;1.87;72.30
47873;BME280;73966;47.438;18.912;2023-12-20T02:13:41;99859.91;;;1.41;73.92
47873;BME280;73966;47.438;18.912;2023-12-20T02:16:14;99859.69;;;1.20;74.73
47873;BME280;73966;47.438;18.912;2023-12-20T02:18:51;99848.47;;;1.71;72.97
47873;BME280;73966;47.438;18.912;2023-12-20T02:21:25;99849.63;;;1.63;73.19
47873;BME280;73966;47.438;18.912;2023-12-20T02:24:00;99841.72;;;1.64;73.20
47873;BME280;73966;47.438;18.912;2023-12-20T02:26:31;99840.19;;;1.32;74.33
47873;BME280;73966;47.438;18.912;2023-12-20T02:29:01;99840.78;;;1.67;72.81
47873;BME280;73966;47.438;18.912;2023-12-20T02:31:31;99844.31;;;1.39;73.95
47873;BME280;73966;47.438;18.912;2023-12-20T02:34:01;99839.53;;;1.52;73.09
47873;BME280;73966;47.438;18.912;2023-12-20T02:36:31;99849.63;;;1.63;72.92
47873;BME280;73966;47.438;18.912;2023-12-20T02:39:01;99843.25;;;1.45;73.48
47873;BME280;73966;47.438;18.912;2023-12-20T02:41:30;99844.81;;;1.51;73.49
47873;BME280;73966;47.438;18.912;2023-12-20T02:43:58;99828.94;;;1.82;72.57
47873;BME280;73966;47.438;18.912;2023-12-20T02:46:28;99823.63;;;1.58;72.47
47873;BME280;73966;47.438;18.912;2023-12-20T02:48:57;99818.41;;;1.58;72.82
47873;BME280;73966;47.438;18.912;2023-12-20T02:51:26;99816.00;;;1.79;72.34
47873;BME280;73966;47.438;18.912;2023-12-20T02:53:56;99804.00;;;1.46;73.13
47873;BME280;73966;47.438;18.912;2023-12-20T02:56:25;99810.09;;;0.94;74.10
47873;BME280;73966;47.438;18.912;2023-12-20T02:58:55;99802.84;;;1.04;74.24
47873;BME280;73966;47.438;18.912;2023-12-20T03:01:24;99798.91;;;1.43;73.54
47873;BME280;73966;47.438;18.912;2023-12-20T03:03:53;99799.28;;;1.58;73.12
47873;BME280;73966;47.438;18.912;2023-12-20T03:06:23;99793.50;;;1.75;72.42
47873;BME280;73966;47.438;18.912;2023-12-20T03:08:52;99799.31;;;1.83;71.73
47873;BME280;73966;47.438;18.912;2023-12-20T03:11:26;99790.88;;;2.00;71.37
47873;BME280;73966;47.438;18.912;2023-12-20T03:13:56;99799.28;;;2.08;71.16
47873;BME280;73966;47.438;18.912;2023-12-20T03:16:27;99795.16;;;2.02;70.50
47873;BME280;73966;47.438;18.912;2023-12-20T03:18:57;99797.69;;;1.54;71.25
47873;BME280;73966;47.438;18.912;2023-12-20T03:21:27;99805.59;;;1.26;73.08
47873;BME280;73966;47.438;18.912;2023-12-20T03:23:55;99808.59;;;1.66;72.17
47873;BME280;73966;47.438;18.912;2023-12-20T03:26:26;99805.38;;;1.83;71.58
47873;BME280;73966;47.438;18.912;2023-12-20T03:28:55;99797.13;;;1.95;71.15
47873;BME280;73966;47.438;18.912;2023-12-20T03:31:25;99799.06;;;1.89;71.50
47873;BME280;73966;47.438;18.912;2023-12-20T03:33:56;99797.81;;;1.76;72.02
47873;BME280;73966;47.438;18.912;2023-12-20T03:36:29;99802.84;;;2.05;71.31
47873;BME280;73966;47.438;18.912;2023-12-20T03:39:04;99811.22;;;2.15;70.97
47873;BME280;73966;47.438;18.912;2023-12-20T03:41:35;99807.34;;;2.25;70.80
47873;BME280;73966;47.438;18.912;2023-12-20T03:44:04;99809.13;;;2.25;70.75
47873;BME280;73966;47.438;18.912;2023-12-20T03:46:34;99810.13;;;2.20;70.90
47873;BME280;73966;47.438;18.912;2023-12-20T03:49:04;99802.13;;;2.25;70.57
47873;BME280;73966;47.438;18.912;2023-12-20T03:51:33;99788.84;;;2.31;69.96
47873;BME280;73966;47.438;18.912;2023-12-20T03:54:02;99795.00;;;2.05;70.40
47873;BME280;73966;47.438;18.912;2023-12-20T03:56:32;99778.81;;;1.95;70.74
47873;BME280;73966;47.438;18.912;2023-12-20T03:59:03;99777.06;;;1.96;70.72
47873;BME280;73966;47.438;18.912;2023-12-20T04:01:38;99776.97;;;2.22;70.13
47873;BME280;73966;47.438;18.912;2023-12-20T04:04:07;99780.19;;;2.29;69.74
47873;BME280;73966;47.438;18.912;2023-12-20T04:06:36;99777.75;;;2.25;70.06
47873;BME280;73966;47.438;18.912;2023-12-20T04:09:05;99767.91;;;2.08;70.08
47873;BME280;73966;47.438;18.912;2023-12-20T04:11:37;99762.81;;;2.28;70.04
47873;BME280;73966;47.438;18.912;2023-12-20T04:14:07;99774.56;;;2.40;69.90
47873;BME280;73966;47.438;18.912;2023-12-20T04:16:39;99778.31;;;2.33;70.05
47873;BME280;73966;47.438;18.912;2023-12-20T04:19:11;99773.03;;;2.58;69.10
47873;BME280;73966;47.438;18.912;2023-12-20T04:21:41;99760.56;;;2.17;70.00
47873;BME280;73966;47.438;18.912;2023-12-20T04:24:13;99769.31;;;2.18;70.14
47873;BME280;73966;47.438;18.912;2023-12-20T04:26:42;99770.00;;;2.45;69.30
47873;BME280;73966;47.438;18.912;2023-12-20T04:29:13;99763.88;;;2.46;69.48
47873;BME280;73966;47.438;18.912;2023-12-20T04:31:46;99764.00;;;2.43;69.33
47873;BME280;73966;47.438;18.912;2023-12-20T04:34:15;99757.84;;;2.20;69.96
47873;BME280;73966;47.438;18.912;2023-12-20T04:36:45;99754.22;;;2.25;69.73
47873;BME280;73966;47.438;18.912;2023-12-20T04:39:14;99749.22;;;2.42;69.50
47873;BME280;73966;47.438;18.912;2023-12-20T04:41:43;99743.44;;;2.34;69.73
47873;BME280;73966;47.438;18.912;2023-12-20T04:44:14;99739.94;;;2.10;69.90
47873;BME280;73966;47.438;18.912;2023-12-20T04:46:43;99735.94;;;2.01;70.09
47873;BME280;73966;47.438;18.912;2023-12-20T04:49:15;99739.31;;;1.30;71.75
47873;BME280;73966;47.438;18.912;2023-12-20T04:51:45;99726.91;;;1.61;71.70
47873;BME280;73966;47.438;18.912;2023-12-20T04:54:17;99724.75;;;1.49;71.28
47873;BME280;73966;47.438;18.912;2023-12-20T04:56:47;99710.50;;;1.58;71.37
47873;BME280;73966;47.438;18.912;2023-12-20T04:59:17;99701.66;;;1.62;71.46
47873;BME280;73966;47.438;18.912;2023-12-20T05:01:51;99700.69;;;1.64;71.24
47873;BME280;73966;47.438;18.912;2023-12-20T05:04:20;99693.38;;;1.51;71.92
47873;BME280;73966;47.438;18.912;2023-12-20T05:06:49;99703.31;;;1.64;71.52
47873;BME280;73966;47.438;18.912;2023-12-20T05:09:19;99703.69;;;1.54;71.56
47873;BME280;73966;47.438;18.912;2023-12-20T05:11:49;99689.50;;;1.61;71.10
47873;BME280;73966;47.438;18.912;2023-12-20T05:14:19;99677.88;;;1.69;70.59
47873;BME280;73966;47.438;18.912;2023-12-20T05:16:55;99670.78;;;1.25;72.32
47873;BME280;73966;47.438;18.912;2023-12-20T05:19:25;99672.87;;;1.38;72.22
47873;BME280;73966;47.438;18.912;2023-12-20T05:21:54;99687.41;;;1.47;71.75
47873;BME280;73966;47.438;18.912;2023-12-20T05:24:23;99697.56;;;1.55;71.40
47873;BME280;73966;47.438;18.912;2023-12-20T05:26:58;99704.44;;;1.57;71.46
47873;BME280;73966;47.438;18.912;2023-12-20T05:29:28;99718.66;;;1.97;70.34
47873;BME280;73966;47.438;18.912;2023-12-20T05:32:01;99717.41;;;2.07;69.33
47873;BME280;73966;47.438;18.912;2023-12-20T05:34:32;99723.56;;;2.06;69.74
47873;BME280;73966;47.438;18.912;2023-12-20T05:37:02;99728.25;;;1.96;70.03
47873;BME280;73966;47.438;18.912;2023-12-20T05:39:31;99727.63;;;1.90;70.33
47873;BME280;73966;47.438;18.912;2023-12-20T05:42:00;99724.88;;;1.94;70.21
47873;BME280;73966;47.438;18.912;2023-12-20T05:44:36;99717.31;;;2.10;69.64
47873;BME280;73966;47.438;18.912;2023-12-20T05:47:05;99706.31;;;2.24;69.32
47873;BME280;73966;47.438;18.912;2023-12-20T05:49:34;99688.31;;;1.69;70.07
47873;BME280;73966;47.438;18.912;2023-12-20T05:52:04;99693.66;;;1.90;69.70
47873;BME280;73966;47.438;18.912;2023-12-20T05:54:33;99690.72;;;1.76;70.13
47873;BME280;73966;47.438;18.912;2023-12-20T05:57:03;99695.59;;;2.08;69.30
47873;BME280;73966;47.438;18.912;2023-12-20T05:59:32;99681.03;;;2.01;69.33
47873;BME280;73966;47.438;18.912;2023-12-20T06:02:06;99684.41;;;2.05;69.39
47873;BME280;73966;47.438;18.912;2023-12-20T06:04:36;99683.88;;;2.18;69.20
47873;BME280;73966;47.438;18.912;2023-12-20T06:07:05;99675.16;;;1.96;69.13
47873;BME280;73966;47.438;18.912;2023-12-20T06:09:34;99671.97;;;1.88;69.66
47873;BME280;73966;47.438;18.912;2023-12-20T06:12:04;99664.88;;;1.68;69.89
47873;BME280;73966;47.438;18.912;2023-12-20T06:14:34;99655.34;;;2.12;68.69
47873;BME280;73966;47.438;18.912;2023-12-20T06:17:10;99657.06;;;2.13;68.00
47873;BME280;73966;47.438;18.912;2023-12-20T06:19:41;99655.84;;;2.00;68.15
47873;BME280;73966;47.438;18.912;2023-12-20T06:22:14;99669.25;;;1.91;68.58
47873;BME280;73966;47.438;18.912;2023-12-20T06:24:43;99662.75;;;1.54;69.64
47873;BME280;73966;47.438;18.912;2023-12-20T06:27:12;99668.13;;;1.75;68.80
47873;BME280;73966;47.438;18.912;2023-12-20T06:29:41;99666.44;;;1.48;69.39
47873;BME280;73966;47.438;18.912;2023-12-20T06:32:16;99673.63;;;1.42;69.96
47873;BME280;73966;47.438;18.912;2023-12-20T06:34:49;99677.38;;;1.60;69.75
47873;BME280;73966;47.438;18.912;2023-12-20T06:37:19;99676.16;;;1.68;69.95
47873;BME280;73966;47.438;18.912;2023-12-20T06:39:49;99688.16;;;1.51;70.50
47873;BME280;73966;47.438;18.912;2023-12-20T06:42:18;99696.59;;;1.57;70.17
47873;BME280;73966;47.438;18.912;2023-12-20T06:44:48;99699.28;;;1.79;70.05
47873;BME280;73966;47.438;18.912;2023-12-20T06:47:19;99710.41;;;1.84;70.04
47873;BME280;73966;47.438;18.912;2023-12-20T06:49:48;99716.72;;;1.79;70.00
47873;BME280;73966;47.438;18.912;2023-12-20T06:52:21;99722.97;;;1.50;70.78
47873;BME280;73966;47.438;18.912;2023-12-20T06:54:50;99724.25;;;1.13;70.80
47873;BME280;73966;47.438;18.912;2023-12-20T06:57:21;99710.09;;;0.93;72.28
47873;BME280;73966;47.438;18.912;2023-12-20T06:59:51;99712.66;;;0.95;72.75
47873;BME280;73966;47.438;18.912;2023-12-20T07:02:24;99715.88;;;2.02;81.50
47873;BME280;73966;47.438;18.912;2023-12-20T07:04:53;99711.97;;;3.62;82.19
47873;BME280;73966;47.438;18.912;2023-12-20T07:07:22;99700.34;;;4.45;78.45
47873;BME280;73966;47.438;18.912;2023-12-20T07:09:52;99699.50;;;4.81;70.48
47873;BME280;73966;47.438;18.912;2023-12-20T07:12:22;99694.84;;;4.32;65.11
47873;BME280;73966;47.438;18.912;2023-12-20T07:14:51;99690.22;;;4.00;63.12
47873;BME280;73966;47.438;18.912;2023-12-20T07:17:20;99699.62;;;3.45;63.85
47873;BME280;73966;47.438;18.912;2023-12-20T07:19:53;99692.31;;;3.13;64.87
47873;BME280;73966;47.438;18.912;2023-12-20T07:22:22;99694.53;;;2.80;65.76
47873;BME280;73966;47.438;18.912;2023-12-20T07:24:51;99702.09;;;2.65;66.38
47873;BME280;73966;47.438;18.912;2023-12-20T07:27:22;99702.75;;;2.49;67.08
47873;BME280;73966;47.438;18.912;2023-12-20T07:29:52;99696.25;;;2.59;66.78
47873;BME280;73966;47.438;18.912;2023-12-20T07:32:23;99704.63;;;2.23;67.79
47873;BME280;73966;47.438;18.912;2023-12-20T07:34:56;99704.56;;;2.25;68.06
47873;BME280;73966;47.438;18.912;2023-12-20T07:37:25;99703.31;;;2.11;68.50
47873;BME280;73966;47.438;18.912;2023-12-20T07:39:54;99703.37;;;2.10;68.49
47873;BME280;73966;47.438;18.912;2023-12-20T07:42:23;99699.59;;;1.95;69.23
47873;BME280;73966;47.438;18.912;2023-12-20T07:44:52;99708.84;;;2.04;69.20
47873;BME280;73966;47.438;18.912;2023-12-20T07:47:26;99707.41;;;2.18;68.63
47873;BME280;73966;47.438;18.912;2023-12-20T07:49:56;99709.00;;;1.76;69.99
47873;BME280;73966;47.438;18.912;2023-12-20T07:52:26;99702.69;;;1.81;69.58
47873;BME280;73966;47.438;18.912;2023-12-20T07:54:56;99695.13;;;1.97;69.40
47873;BME280;73966;47.438;18.912;2023-12-20T07:57:28;99698.50;;;2.01;69.04
47873;BME280;73966;47.438;18.912;2023-12-20T08:00:01;99698.53;;;2.22;69.01
47873;BME280;73966;47.438;18.912;2023-12-20T08:02:31;99691.84;;;2.15;68.88
47873;BME280;73966;47.438;18.912;2023-12-20T08:05:02;99684.62;;;2.22;69.16
47873;BME280;73966;47.438;18.912;2023-12-20T08:07:31;99682.38;;;2.35;67.90
47873;BME280;73966;47.438;18.912;2023-12-20T08:10:01;99684.81;;;2.39;67.43
47873;BME280;73966;47.438;18.912;2023-12-20T08:12:30;99680.97;;;2.26;66.96
47873;BME280;73966;47.438;18.912;2023-12-20T08:15:01;99683.47;;;2.51;67.14
47873;BME280;73966;47.438;18.912;2023-12-20T08:17:33;99686.22;;;2.70;66.70
47873;BME280;73966;47.438;18.912;2023-12-20T08:20:06;99680.22;;;2.88;65.58
47873;BME280;73966;47.438;18.912;2023-12-20T08:22:35;99688.22;;;2.85;65.96
47873;BME280;73966;47.438;18.912;2023-12-20T08:25:07;99692.41;;;2.67;66.03
47873;BME280;73966;47.438;18.912;2023-12-20T08:27:39;99689.78;;;2.67;66.27
47873;BME280;73966;47.438;18.912;2023-12-20T08:30:21;99689.28;;;3.02;65.61
47873;BME280;73966;47.438;18.912;2023-12-20T08:32:50;99686.13;;;2.93;65.06
47873;BME280;73966;47.438;18.912;2023-12-20T08:35:22;99692.09;;;2.75;65.23
47873;BME280;73966;47.438;18.912;2023-12-20T08:37:52;99686.28;;;2.89;65.19
47873;BME280;73966;47.438;18.912;2023-12-20T08:40:23;99693.72;;;3.00;65.12
47873;BME280;73966;47.438;18.912;2023-12-20T08:42:53;99690.00;;;3.05;64.89
47873;BME280;73966;47.438;18.912;2023-12-20T08:45:23;99689.91;;;2.86;65.31
47873;BME280;73966;47.438;18.912;2023-12-20T08:47:55;99697.06;;;3.03;65.36
47873;BME280;73966;47.438;18.912;2023-12-20T08:50:31;99688.22;;;3.26;64.98
47873;BME280;73966;47.438;18.912;2023-12-20T08:53:00;99692.66;;;3.24;64.76
47873;BME280;73966;47.438;18.912;2023-12-20T08:55:32;99690.41;;;3.37;64.63
47873;BME280;73966;47.438;18.912;2023-12-20T08:58:01;99688.56;;;3.18;65.28
47873;BME280;73966;47.438;18.912;2023-12-20T09:00:30;99697.06;;;3.44;65.22
47873;BME280;73966;47.438;18.912;2023-12-20T09:03:03;99694.94;;;3.52;65.43
47873;BME280;73966;47.438;18.912;2023-12-20T09:05:33;99693.69;;;3.81;64.93
47873;BME280;73966;47.438;18.912;2023-12-20T09:08:04;99698.63;;;3.87;64.73
47873;BME280;73966;47.438;18.912;2023-12-20T09:10:35;99698.59;;;3.89;65.38
47873;BME280;73966;47.438;18.912;2023-12-20T09:13:05;99688.75;;;4.13;64.84
47873;BME280;73966;47.438;18.912;2023-12-20T09:15:37;99677.50;;;4.47;63.23
47873;BME280;73966;47.438;18.912;2023-12-20T09:18:10;99684.69;;;4.06;64.32
47873;BME280;73966;47.438;18.912;2023-12-20T09:20:40;99682.00;;;4.26;64.54
47873;BME280;73966;47.438;18.912;2023-12-20T09:23:12;99672.09;;;4.33;64.28
47873;BME280;73966;47.438;18.912;2023-12-20T09:25:42;99676.13;;;4.76;63.59
47873;BME280;73966;47.438;18.912;2023-12-20T09:28:12;99668.84;;;5.33;62.79
47873;BME280;73966;47.438;18.912;2023-12-20T09:30:49;99662.22;;;6.10;60.12
47873;BME280;73966;47.438;18.912;2023-12-20T09:33:25;99640.81;;;6.94;58.41
47873;BME280;73966;47.438;18.912;2023-12-20T09:35:56;99640.06;;;7.93;55.29
47873;BME280;73966;47.438;18.912;2023-12-20T09:38:25;99629.97;;;8.55;53.51
47873;BME280;73966;47.438;18.912;2023-12-20T09:40:55;99622.91;;;9.34;51.25
47873;BME280;73966;47.438;18.912;2023-12-20T09:43:25;99611.38;;;9.86;50.28
47873;BME280;73966;47.438;18.912;2023-12-20T09:46:00;99612.25;;;10.47;47.63
47873;BME280;73966;47.438;18.912;2023-12-20T09:48:33;99602.41;;;10.84;47.84
47873;BME280;73966;47.438;18.912;2023-12-20T09:51:04;99595.88;;;11.13;46.58
47873;BME280;73966;47.438;18.912;2023-12-20T09:53:35;99595.56;;;11.62;46.20
47873;BME280;73966;47.438;18.912;2023-12-20T09:56:06;99595.34;;;11.65;46.45
47873;BME280;73966;47.438;18.912;2023-12-20T09:58:36;99593.88;;;12.06;45.92
47873;BME280;73966;47.438;18.912;2023-12-20T10:01:07;99591.00;;;12.52;45.33
47873;BME280;73966;47.438;18.912;2023-12-20T10:03:41;99576.56;;;12.34;43.59
47873;BME280;73966;47.438;18.912;2023-12-20T10:06:11;99591.47;;;12.58;43.94
47873;BME280;73966;47.438;18.912;2023-12-20T10:08:41;99583.66;;;12.98;42.52
47873;BME280;73966;47.438;18.912;2023-12-20T10:11:11;99577.22;;;13.21;41.58
47873;BME280;73966;47.438;18.912;2023-12-20T10:13:42;99580.84;;;13.62;39.91
47873;BME280;73966;47.438;18.912;2023-12-20T10:16:12;99578.84;;;13.24;40.62
47873;BME280;73966;47.438;18.912;2023-12-20T10:18:47;99563.22;;;13.19;40.15
47873;BME280;73966;47.438;18.912;2023-12-20T10:21:18;99554.00;;;13.44;39.43
47873;BME280;73966;47.438;18.912;2023-12-20T10:23:48;99565.56;;;13.34;40.17
47873;BME280;73966;47.438;18.912;2023-12-20T10:26:19;99556.19;;;13.60;40.18
47873;BME280;73966;47.438;18.912;2023-12-20T10:28:50;99551.72;;;12.56;40.97
47873;BME280;73966;47.438;18.912;2023-12-20T10:31:29;99549.59;;;12.39;42.44
47873;BME280;73966;47.438;18.912;2023-12-20T10:33:59;99544.66;;;12.66;42.20
47873;BME280;73966;47.438;18.912;2023-12-20T10:36:31;99541.84;;;13.00;41.39
47873;BME280;73966;47.438;18.912;2023-12-20T10:39:07;99539.84;;;13.44;40.42
47873;BME280;73966;47.438;18.912;2023-12-20T10:41:40;99541.44;;;13.25;39.98
47873;BME280;73966;47.438;18.912;2023-12-20T10:44:10;99534.78;;;13.71;39.43
47873;BME280;73966;47.438;18.912;2023-12-20T10:46:40;99538.25;;;13.62;39.30
47873;BME280;73966;47.438;18.912;2023-12-20T10:49:16;99528.09;;;13.87;39.60
47873;BME280;73966;47.438;18.912;2023-12-20T10:51:48;99519.41;;;13.44;40.10
47873;BME280;73966;47.438;18.912;2023-12-20T10:54:20;99529.13;;;13.24;40.72
47873;BME280;73966;47.438;18.912;2023-12-20T10:56:52;99522.91;;;13.45;40.80
47873;BME280;73966;47.438;18.912;2023-12-20T10:59:23;99530.47;;;13.49;40.42
47873;BME280;73966;47.438;18.912;2023-12-20T11:01:55;99528.50;;;13.21;40.68
47873;BME280;73966;47.438;18.912;2023-12-20T11:04:38;99523.53;;;13.27;41.01
47873;BME280;73966;47.438;18.912;2023-12-20T11:07:17;99522.97;;;13.55;40.79
47873;BME280;73966;47.438;18.912;2023-12-20T11:09:56;99507.63;;;12.74;42.09
47873;BME280;73966;47.438;18.912;2023-12-20T11:12:36;99506.06;;;13.14;41.53
47873;BME280;73966;47.438;18.912;2023-12-20T11:15:08;99500.38;;;13.49;40.52
47873;BME280;73966;47.438;18.912;2023-12-20T11:17:54;99500.31;;;13.09;41.40
47873;BME280;73966;47.438;18.912;2023-12-20T11:20:35;99493.28;;;13.28;41.39
47873;BME280;73966;47.438;18.912;2023-12-20T11:23:08;99481.44;;;13.12;41.91
47873;BME280;73966;47.438;18.912;2023-12-20T11:28:23;99463.53;;;13.44;41.76
47873;BME280;73966;47.438;18.912;2023-12-20T11:30:54;99454.91;;;13.00;42.12
47873;BME280;73966;47.438;18.912;2023-12-20T11:33:30;99458.75;;;13.17;42.58
47873;BME280;73966;47.438;18.912;2023-12-20T11:35:59;99442.38;;;13.43;42.28
47873;BME280;73966;47.438;18.912;2023-12-20T11:38:37;99455.78;;;13.41;42.14
47873;BME280;73966;47.438;18.912;2023-12-20T11:41:06;99450.78;;;13.48;42.94
47873;BME280;73966;47.438;18.912;2023-12-20T11:43:37;99452.47;;;13.49;42.88
47873;BME280;73966;47.438;18.912;2023-12-20T11:46:08;99446.34;;;13.77;42.41
47873;BME280;73966;47.438;18.912;2023-12-20T11:48:38;99443.28;;;14.01;42.13
47873;BME280;73966;47.438;18.912;2023-12-20T11:51:11;99436.16;;;13.83;42.45
47873;BME280;73966;47.438;18.912;2023-12-20T11:53:42;99444.69;;;13.67;43.03
47873;BME280;73966;47.438;18.912;2023-12-20T11:56:12;99435.41;;;13.61;43.57
47873;BME280;73966;47.438;18.912;2023-12-20T11:58:42;99442.53;;;13.51;44.00
47873;BME280;73966;47.438;18.912;2023-12-20T12:01:11;99437.69;;;13.75;43.64
47873;BME280;73966;47.438;18.912;2023-12-20T12:03:40;99425.72;;;13.20;44.72
47873;BME280;73966;47.438;18.912;2023-12-20T12:06:10;99425.16;;;13.16;45.39
47873;BME280;73966;47.438;18.912;2023-12-20T12:08:42;99414.09;;;13.21;45.91
47873;BME280;73966;47.438;18.912;2023-12-20T12:11:15;99411.28;;;13.43;46.11
47873;BME280;73966;47.438;18.912;2023-12-20T12:13:44;99413.22;;;13.32;46.08
47873;BME280;73966;47.438;18.912;2023-12-20T12:16:17;99406.06;;;13.42;46.45
47873;BME280;73966;47.438;18.912;2023-12-20T12:18:55;99415.91;;;12.80;48.16
47873;BME280;73966;47.438;18.912;2023-12-20T12:21:26;99404.97;;;12.11;49.98
47873;BME280;73966;47.438;18.912;2023-12-20T12:24:10;99405.63;;;11.92;51.07
47873;BME280;73966;47.438;18.912;2023-12-20T12:26:42;99418.56;;;11.30;52.68
47873;BME280;73966;47.438;18.912;2023-12-20T12:29:27;99411.84;;;10.81;54.10
47873;BME280;73966;47.438;18.912;2023-12-20T12:32:04;99415.28;;;9.89;56.04
47873;BME280;73966;47.438;18.912;2023-12-20T12:34:40;99415.72;;;9.72;56.89
47873;BME280;73966;47.438;18.912;2023-12-20T12:37:10;99430.44;;;9.39;57.67
47873;BME280;73966;47.438;18.912;2023-12-20T12:39:42;99412.19;;;9.10;58.34
47873;BME280;73966;47.438;18.912;2023-12-20T12:42:14;99427.66;;;8.78;59.36
47873;BME280;73966;47.438;18.912;2023-12-20T12:44:44;99426.41;;;8.71;59.43
47873;BME280;73966;47.438;18.912;2023-12-20T12:47:13;99432.84;;;8.14;60.67
47873;BME280;73966;47.438;18.912;2023-12-20T12:49:42;99426.91;;;7.98;61.29
47873;BME280;73966;47.438;18.912;2023-12-20T12:52:12;99429.91;;;8.19;60.73
47873;BME280;73966;47.438;18.912;2023-12-20T12:54:43;99431.50;;;8.34;60.25
47873;BME280;73966;47.438;18.912;2023-12-20T12:57:22;99441.12;;;7.96;61.04
47873;BME280;73966;47.438;18.912;2023-12-20T12:59:52;99440.59;;;7.91;61.42
47873;BME280;73966;47.438;18.912;2023-12-20T13:02:21;99437.91;;;8.05;60.89
47873;BME280;73966;47.438;18.912;2023-12-20T13:04:50;99430.50;;;7.97;60.56
47873;BME280;73966;47.438;18.912;2023-12-20T13:07:19;99421.78;;;7.82;60.98
47873;BME280;73966;47.438;18.912;2023-12-20T13:09:51;99434.47;;;7.63;61.35
47873;BME280;73966;47.438;18.912;2023-12-20T13:12:20;99441.84;;;7.58;61.49
47873;BME280;73966;47.438;18.912;2023-12-20T13:14:53;99444.81;;;7.39;61.49
47873;BME280;73966;47.438;18.912;2023-12-20T13:17:22;99450.13;;;7.52;61.29
47873;BME280;73966;47.438;18.912;2023-12-20T13:19:52;99440.66;;;7.35;61.44